Terminal Aerodrome Forecast
Issued by NWS

Home | Current Version | Previous Version | Text Only | Print | Product List | Glossary On
Versions: 1 2 3 4 5 6 7 8 9 10 11 12 13
000
FTUS45 KVEF 222300
TAFEED
TAF
KEED 222331Z 2300/2324 VRB05KT P6SM SKC
     FM230300 33008KT P6SM SKC
     FM230600 36012KT P6SM SKC
     FM231700 02012G18KT P6SM SKC=

USA.gov is the U.S. government's official web portal to all federal, state and local government web resources and services.